sensor_id;sensor_type;location;lat;lon;timestamp;P1;durP1;ratioP1;P2;durP2;ratioP2
6955;SDS011;50345;51.136;16.886;2023-08-06T00:01:15;2.55;;;2.25;;
6955;SDS011;50345;51.136;16.886;2023-08-06T00:03:43;3.00;;;2.80;;
6955;SDS011;50345;51.136;16.886;2023-08-06T00:06:09;3.00;;;2.80;;
6955;SDS011;50345;51.136;16.886;2023-08-06T00:08:35;2.43;;;2.23;;
6955;SDS011;50345;51.136;16.886;2023-08-06T00:11:01;3.33;;;2.80;;
6955;SDS011;50345;51.136;16.886;2023-08-06T00:13:27;2.43;;;2.33;;
6955;SDS011;50345;51.136;16.886;2023-08-06T00:15:53;2.60;;;2.33;;
6955;SDS011;50345;51.136;16.886;2023-08-06T00:18:19;3.00;;;2.70;;
6955;SDS011;50345;51.136;16.886;2023-08-06T00:20:45;4.23;;;2.50;;
6955;SDS011;50345;51.136;16.886;2023-08-06T00:23:11;2.28;;;2.15;;
6955;SDS011;50345;51.136;16.886;2023-08-06T00:25:37;2.55;;;2.17;;
6955;SDS011;50345;51.136;16.886;2023-08-06T00:28:03;2.33;;;2.13;;
6955;SDS011;50345;51.136;16.886;2023-08-06T00:30:29;6.30;;;3.10;;
6955;SDS011;50345;51.136;16.886;2023-08-06T00:32:55;6.13;;;2.92;;
6955;SDS011;50345;51.136;16.886;2023-08-06T00:35:21;3.55;;;2.80;;
6955;SDS011;50345;51.136;16.886;2023-08-06T00:37:47;4.22;;;2.58;;
6955;SDS011;50345;51.136;16.886;2023-08-06T00:40:13;5.77;;;2.23;;
6955;SDS011;50345;51.136;16.886;2023-08-06T00:42:39;3.20;;;2.90;;
6955;SDS011;50345;51.136;16.886;2023-08-06T00:45:05;1.92;;;1.80;;
6955;SDS011;50345;51.136;16.886;2023-08-06T00:47:31;3.63;;;2.40;;
6955;SDS011;50345;51.136;16.886;2023-08-06T00:49:58;2.30;;;2.10;;
6955;SDS011;50345;51.136;16.886;2023-08-06T00:52:24;2.55;;;2.45;;
6955;SDS011;50345;51.136;16.886;2023-08-06T00:54:50;2.78;;;2.28;;
6955;SDS011;50345;51.136;16.886;2023-08-06T00:57:16;8.52;;;2.13;;
6955;SDS011;50345;51.136;16.886;2023-08-06T00:59:43;1.75;;;1.65;;
6955;SDS011;50345;51.136;16.886;2023-08-06T01:02:09;1.75;;;1.65;;
6955;SDS011;50345;51.136;16.886;2023-08-06T01:04:35;2.13;;;2.03;;
6955;SDS011;50345;51.136;16.886;2023-08-06T01:07:19;1.43;;;1.33;;
6955;SDS011;50345;51.136;16.886;2023-08-06T01:09:51;1.52;;;1.42;;
6955;SDS011;50345;51.136;16.886;2023-08-06T01:17:18;3.75;;;1.38;;
6955;SDS011;50345;51.136;16.886;2023-08-06T01:19:45;1.40;;;1.30;;
6955;SDS011;50345;51.136;16.886;2023-08-06T01:22:11;1.30;;;1.20;;
6955;SDS011;50345;51.136;16.886;2023-08-06T01:24:37;1.50;;;1.40;;
6955;SDS011;50345;51.136;16.886;2023-08-06T01:27:04;1.25;;;1.15;;
6955;SDS011;50345;51.136;16.886;2023-08-06T01:29:34;2.10;;;1.30;;
6955;SDS011;50345;51.136;16.886;2023-08-06T01:32:01;0.90;;;0.90;;
6955;SDS011;50345;51.136;16.886;2023-08-06T01:34:28;1.58;;;1.35;;
6955;SDS011;50345;51.136;16.886;2023-08-06T01:36:54;1.40;;;1.30;;
6955;SDS011;50345;51.136;16.886;2023-08-06T01:39:21;1.20;;;1.10;;
6955;SDS011;50345;51.136;16.886;2023-08-06T01:41:47;1.15;;;1.05;;
6955;SDS011;50345;51.136;16.886;2023-08-06T01:44:14;4.32;;;0.95;;
6955;SDS011;50345;51.136;16.886;2023-08-06T01:46:40;1.20;;;1.10;;
6955;SDS011;50345;51.136;16.886;2023-08-06T01:49:06;1.20;;;1.10;;
6955;SDS011;50345;51.136;16.886;2023-08-06T01:51:32;1.30;;;1.20;;
6955;SDS011;50345;51.136;16.886;2023-08-06T01:53:58;0.77;;;0.70;;
6955;SDS011;50345;51.136;16.886;2023-08-06T01:56:24;1.80;;;1.00;;
6955;SDS011;50345;51.136;16.886;2023-08-06T01:58:50;1.10;;;1.00;;
6955;SDS011;50345;51.136;16.886;2023-08-06T02:01:16;1.77;;;1.08;;
6955;SDS011;50345;51.136;16.886;2023-08-06T02:03:42;1.10;;;1.00;;
6955;SDS011;50345;51.136;16.886;2023-08-06T02:06:08;1.07;;;0.93;;
6955;SDS011;50345;51.136;16.886;2023-08-06T02:08:34;1.10;;;0.90;;
6955;SDS011;50345;51.136;16.886;2023-08-06T02:11:00;1.50;;;1.02;;
6955;SDS011;50345;51.136;16.886;2023-08-06T02:13:27;1.02;;;0.90;;
6955;SDS011;50345;51.136;16.886;2023-08-06T02:15:53;1.77;;;1.20;;
6955;SDS011;50345;51.136;16.886;2023-08-06T02:18:19;0.93;;;0.90;;
6955;SDS011;50345;51.136;16.886;2023-08-06T02:20:55;1.27;;;0.80;;
6955;SDS011;50345;51.136;16.886;2023-08-06T02:23:25;1.25;;;1.00;;
6955;SDS011;50345;51.136;16.886;2023-08-06T02:26:01;1.50;;;0.93;;
6955;SDS011;50345;51.136;16.886;2023-08-06T02:28:27;3.17;;;1.17;;
6955;SDS011;50345;51.136;16.886;2023-08-06T02:30:53;1.17;;;0.95;;
6955;SDS011;50345;51.136;16.886;2023-08-06T02:33:19;3.00;;;0.97;;
6955;SDS011;50345;51.136;16.886;2023-08-06T02:35:45;1.10;;;1.00;;
6955;SDS011;50345;51.136;16.886;2023-08-06T02:38:12;1.38;;;1.23;;
6955;SDS011;50345;51.136;16.886;2023-08-06T02:40:44;1.08;;;0.98;;
6955;SDS011;50345;51.136;16.886;2023-08-06T02:43:10;0.70;;;0.70;;
6955;SDS011;50345;51.136;16.886;2023-08-06T02:45:36;4.97;;;0.80;;
6955;SDS011;50345;51.136;16.886;2023-08-06T02:48:02;0.80;;;0.80;;
6955;SDS011;50345;51.136;16.886;2023-08-06T02:50:28;1.00;;;0.90;;
6955;SDS011;50345;51.136;16.886;2023-08-06T02:52:54;1.83;;;0.70;;
6955;SDS011;50345;51.136;16.886;2023-08-06T02:55:20;0.80;;;0.80;;
6955;SDS011;50345;51.136;16.886;2023-08-06T02:57:46;0.60;;;0.60;;
6955;SDS011;50345;51.136;16.886;2023-08-06T03:00:13;1.10;;;0.80;;
6955;SDS011;50345;51.136;16.886;2023-08-06T03:02:39;0.70;;;0.70;;
6955;SDS011;50345;51.136;16.886;2023-08-06T03:05:05;0.90;;;0.75;;
6955;SDS011;50345;51.136;16.886;2023-08-06T03:07:31;1.75;;;1.10;;
6955;SDS011;50345;51.136;16.886;2023-08-06T03:09:59;1.10;;;0.80;;
6955;SDS011;50345;51.136;16.886;2023-08-06T03:12:27;0.70;;;0.70;;
6955;SDS011;50345;51.136;16.886;2023-08-06T03:14:53;1.08;;;0.70;;
6955;SDS011;50345;51.136;16.886;2023-08-06T03:17:20;1.85;;;0.75;;
6955;SDS011;50345;51.136;16.886;2023-08-06T03:19:46;8.95;;;1.00;;
6955;SDS011;50345;51.136;16.886;2023-08-06T03:22:12;0.65;;;0.65;;
6955;SDS011;50345;51.136;16.886;2023-08-06T03:24:38;0.60;;;0.60;;
6955;SDS011;50345;51.136;16.886;2023-08-06T03:27:04;1.30;;;1.02;;
6955;SDS011;50345;51.136;16.886;2023-08-06T03:29:30;1.60;;;0.73;;
6955;SDS011;50345;51.136;16.886;2023-08-06T03:31:56;2.25;;;0.70;;
6955;SDS011;50345;51.136;16.886;2023-08-06T03:34:22;0.80;;;0.80;;
6955;SDS011;50345;51.136;16.886;2023-08-06T03:36:48;0.60;;;0.60;;
6955;SDS011;50345;51.136;16.886;2023-08-06T03:39:14;0.80;;;0.77;;
6955;SDS011;50345;51.136;16.886;2023-08-06T03:41:40;0.75;;;0.75;;
6955;SDS011;50345;51.136;16.886;2023-08-06T03:44:06;0.90;;;0.70;;
6955;SDS011;50345;51.136;16.886;2023-08-06T03:46:32;0.60;;;0.60;;
6955;SDS011;50345;51.136;16.886;2023-08-06T03:48:59;0.70;;;0.70;;
6955;SDS011;50345;51.136;16.886;2023-08-06T03:51:25;0.60;;;0.60;;
6955;SDS011;50345;51.136;16.886;2023-08-06T03:53:51;1.33;;;0.80;;
6955;SDS011;50345;51.136;16.886;2023-08-06T03:56:17;1.67;;;0.67;;
6955;SDS011;50345;51.136;16.886;2023-08-06T03:58:43;1.00;;;0.70;;
6955;SDS011;50345;51.136;16.886;2023-08-06T04:01:09;0.83;;;0.83;;
6955;SDS011;50345;51.136;16.886;2023-08-06T04:03:35;1.00;;;0.90;;
6955;SDS011;50345;51.136;16.886;2023-08-06T04:06:06;0.88;;;0.70;;
6955;SDS011;50345;51.136;16.886;2023-08-06T04:08:32;0.60;;;0.60;;
6955;SDS011;50345;51.136;16.886;2023-08-06T04:10:58;0.98;;;0.70;;
6955;SDS011;50345;51.136;16.886;2023-08-06T04:13:24;1.20;;;0.80;;
6955;SDS011;50345;51.136;16.886;2023-08-06T04:15:50;1.65;;;0.77;;
6955;SDS011;50345;51.136;16.886;2023-08-06T04:18:16;1.67;;;0.70;;
6955;SDS011;50345;51.136;16.886;2023-08-06T04:20:46;1.20;;;0.80;;
6955;SDS011;50345;51.136;16.886;2023-08-06T04:23:14;0.80;;;0.80;;
6955;SDS011;50345;51.136;16.886;2023-08-06T04:25:40;0.80;;;0.80;;
6955;SDS011;50345;51.136;16.886;2023-08-06T04:28:06;0.65;;;0.65;;
6955;SDS011;50345;51.136;16.886;2023-08-06T04:30:32;0.70;;;0.70;;
6955;SDS011;50345;51.136;16.886;2023-08-06T04:32:58;0.60;;;0.60;;
6955;SDS011;50345;51.136;16.886;2023-08-06T04:35:24;0.70;;;0.70;;
6955;SDS011;50345;51.136;16.886;2023-08-06T04:37:50;0.55;;;0.55;;
6955;SDS011;50345;51.136;16.886;2023-08-06T04:40:16;0.60;;;0.60;;
6955;SDS011;50345;51.136;16.886;2023-08-06T04:42:42;0.73;;;0.60;;
6955;SDS011;50345;51.136;16.886;2023-08-06T04:45:09;0.73;;;0.73;;
6955;SDS011;50345;51.136;16.886;2023-08-06T04:47:35;0.80;;;0.80;;
6955;SDS011;50345;51.136;16.886;2023-08-06T04:50:01;1.13;;;0.67;;
6955;SDS011;50345;51.136;16.886;2023-08-06T04:52:27;0.80;;;0.80;;
6955;SDS011;50345;51.136;16.886;2023-08-06T04:54:53;0.80;;;0.70;;
6955;SDS011;50345;51.136;16.886;2023-08-06T04:57:20;0.70;;;0.70;;
6955;SDS011;50345;51.136;16.886;2023-08-06T04:59:46;0.60;;;0.60;;
6955;SDS011;50345;51.136;16.886;2023-08-06T05:02:12;0.60;;;0.60;;
6955;SDS011;50345;51.136;16.886;2023-08-06T05:04:38;0.60;;;0.60;;
6955;SDS011;50345;51.136;16.886;2023-08-06T05:07:05;0.70;;;0.60;;
6955;SDS011;50345;51.136;16.886;2023-08-06T05:09:31;0.68;;;0.63;;
6955;SDS011;50345;51.136;16.886;2023-08-06T05:11:57;0.70;;;0.70;;
6955;SDS011;50345;51.136;16.886;2023-08-06T05:14:23;2.30;;;0.80;;
6955;SDS011;50345;51.136;16.886;2023-08-06T05:16:49;1.73;;;0.80;;
6955;SDS011;50345;51.136;16.886;2023-08-06T05:19:15;0.80;;;0.80;;
6955;SDS011;50345;51.136;16.886;2023-08-06T05:21:41;3.47;;;0.80;;
6955;SDS011;50345;51.136;16.886;2023-08-06T05:24:07;3.60;;;1.00;;
6955;SDS011;50345;51.136;16.886;2023-08-06T05:26:33;0.90;;;0.90;;
6955;SDS011;50345;51.136;16.886;2023-08-06T05:29:00;0.80;;;0.80;;
6955;SDS011;50345;51.136;16.886;2023-08-06T05:31:26;0.60;;;0.60;;
6955;SDS011;50345;51.136;16.886;2023-08-06T05:33:53;0.60;;;0.60;;
6955;SDS011;50345;51.136;16.886;2023-08-06T05:36:19;1.08;;;0.70;;
6955;SDS011;50345;51.136;16.886;2023-08-06T05:38:46;0.90;;;0.70;;
6955;SDS011;50345;51.136;16.886;2023-08-06T05:41:12;1.13;;;0.60;;
6955;SDS011;50345;51.136;16.886;2023-08-06T05:43:38;0.73;;;0.73;;
6955;SDS011;50345;51.136;16.886;2023-08-06T05:46:04;0.50;;;0.50;;
6955;SDS011;50345;51.136;16.886;2023-08-06T05:48:30;0.60;;;0.50;;
6955;SDS011;50345;51.136;16.886;2023-08-06T05:50:56;0.82;;;0.60;;
6955;SDS011;50345;51.136;16.886;2023-08-06T05:53:23;1.20;;;0.93;;
6955;SDS011;50345;51.136;16.886;2023-08-06T05:55:49;0.80;;;0.75;;
6955;SDS011;50345;51.136;16.886;2023-08-06T05:58:16;0.60;;;0.60;;
6955;SDS011;50345;51.136;16.886;2023-08-06T06:00:42;0.80;;;0.80;;
6955;SDS011;50345;51.136;16.886;2023-08-06T06:03:08;1.80;;;1.35;;
6955;SDS011;50345;51.136;16.886;2023-08-06T06:05:37;0.70;;;0.70;;
6955;SDS011;50345;51.136;16.886;2023-08-06T06:08:03;1.30;;;0.60;;
6955;SDS011;50345;51.136;16.886;2023-08-06T06:10:29;0.60;;;0.60;;
6955;SDS011;50345;51.136;16.886;2023-08-06T06:12:55;0.90;;;0.82;;
6955;SDS011;50345;51.136;16.886;2023-08-06T06:15:22;0.70;;;0.60;;
6955;SDS011;50345;51.136;16.886;2023-08-06T06:17:48;0.98;;;0.70;;
6955;SDS011;50345;51.136;16.886;2023-08-06T06:20:14;0.60;;;0.60;;
6955;SDS011;50345;51.136;16.886;2023-08-06T06:22:40;0.60;;;0.60;;
6955;SDS011;50345;51.136;16.886;2023-08-06T06:25:06;0.70;;;0.60;;
6955;SDS011;50345;51.136;16.886;2023-08-06T06:27:32;1.10;;;0.77;;
6955;SDS011;50345;51.136;16.886;2023-08-06T06:29:58;0.75;;;0.60;;
6955;SDS011;50345;51.136;16.886;2023-08-06T06:32:24;0.70;;;0.70;;
6955;SDS011;50345;51.136;16.886;2023-08-06T06:34:50;1.08;;;0.73;;
6955;SDS011;50345;51.136;16.886;2023-08-06T06:37:16;2.10;;;0.60;;
6955;SDS011;50345;51.136;16.886;2023-08-06T06:39:42;2.80;;;0.80;;
6955;SDS011;50345;51.136;16.886;2023-08-06T06:42:09;0.90;;;0.70;;
6955;SDS011;50345;51.136;16.886;2023-08-06T06:44:35;0.80;;;0.80;;
6955;SDS011;50345;51.136;16.886;2023-08-06T06:47:01;2.07;;;0.83;;
6955;SDS011;50345;51.136;16.886;2023-08-06T06:49:27;1.20;;;0.90;;
6955;SDS011;50345;51.136;16.886;2023-08-06T06:51:53;1.25;;;0.80;;
6955;SDS011;50345;51.136;16.886;2023-08-06T06:54:19;0.95;;;0.70;;
6955;SDS011;50345;51.136;16.886;2023-08-06T06:56:45;2.58;;;1.00;;
6955;SDS011;50345;51.136;16.886;2023-08-06T06:59:11;0.87;;;0.63;;
6955;SDS011;50345;51.136;16.886;2023-08-06T07:01:37;0.80;;;0.80;;
6955;SDS011;50345;51.136;16.886;2023-08-06T07:04:03;0.90;;;0.80;;
6955;SDS011;50345;51.136;16.886;2023-08-06T07:06:30;1.50;;;0.80;;
6955;SDS011;50345;51.136;16.886;2023-08-06T07:08:56;1.13;;;0.90;;
6955;SDS011;50345;51.136;16.886;2023-08-06T07:11:22;0.70;;;0.70;;
6955;SDS011;50345;51.136;16.886;2023-08-06T07:13:49;0.90;;;0.90;;
6955;SDS011;50345;51.136;16.886;2023-08-06T07:16:15;0.80;;;0.80;;
6955;SDS011;50345;51.136;16.886;2023-08-06T07:18:41;0.70;;;0.70;;
6955;SDS011;50345;51.136;16.886;2023-08-06T07:21:07;1.45;;;0.70;;
6955;SDS011;50345;51.136;16.886;2023-08-06T07:23:33;1.07;;;0.97;;
6955;SDS011;50345;51.136;16.886;2023-08-06T07:25:59;4.23;;;2.33;;
6955;SDS011;50345;51.136;16.886;2023-08-06T07:28:25;1.50;;;1.40;;
6955;SDS011;50345;51.136;16.886;2023-08-06T07:30:51;1.25;;;1.15;;
6955;SDS011;50345;51.136;16.886;2023-08-06T07:33:17;1.55;;;0.80;;
6955;SDS011;50345;51.136;16.886;2023-08-06T07:35:43;1.17;;;1.08;;
6955;SDS011;50345;51.136;16.886;2023-08-06T07:38:09;1.20;;;0.80;;
6955;SDS011;50345;51.136;16.886;2023-08-06T07:40:36;1.00;;;1.00;;
6955;SDS011;50345;51.136;16.886;2023-08-06T07:43:02;1.35;;;0.90;;
6955;SDS011;50345;51.136;16.886;2023-08-06T07:45:31;1.98;;;1.00;;
6955;SDS011;50345;51.136;16.886;2023-08-06T07:47:57;0.80;;;0.80;;
6955;SDS011;50345;51.136;16.886;2023-08-06T07:50:23;0.83;;;0.83;;
6955;SDS011;50345;51.136;16.886;2023-08-06T07:52:49;1.20;;;1.10;;
6955;SDS011;50345;51.136;16.886;2023-08-06T07:55:16;0.98;;;0.95;;
6955;SDS011;50345;51.136;16.886;2023-08-06T07:57:42;1.20;;;1.10;;
6955;SDS011;50345;51.136;16.886;2023-08-06T08:00:08;1.00;;;1.00;;
6955;SDS011;50345;51.136;16.886;2023-08-06T08:02:34;1.20;;;1.10;;
6955;SDS011;50345;51.136;16.886;2023-08-06T08:05:00;0.90;;;0.90;;
6955;SDS011;50345;51.136;16.886;2023-08-06T08:07:26;1.48;;;0.95;;
6955;SDS011;50345;51.136;16.886;2023-08-06T08:09:55;0.90;;;0.80;;
6955;SDS011;50345;51.136;16.886;2023-08-06T08:12:21;0.70;;;0.70;;
6955;SDS011;50345;51.136;16.886;2023-08-06T08:14:47;1.30;;;1.20;;
6955;SDS011;50345;51.136;16.886;2023-08-06T08:17:13;1.33;;;0.90;;
6955;SDS011;50345;51.136;16.886;2023-08-06T08:19:42;1.17;;;0.80;;
6955;SDS011;50345;51.136;16.886;2023-08-06T08:22:08;0.93;;;0.93;;
6955;SDS011;50345;51.136;16.886;2023-08-06T08:24:34;1.20;;;1.10;;
6955;SDS011;50345;51.136;16.886;2023-08-06T08:27:00;1.05;;;0.85;;
6955;SDS011;50345;51.136;16.886;2023-08-06T08:29:26;0.80;;;0.80;;
6955;SDS011;50345;51.136;16.886;2023-08-06T08:31:52;0.90;;;0.90;;
6955;SDS011;50345;51.136;16.886;2023-08-06T08:34:18;0.70;;;0.70;;
6955;SDS011;50345;51.136;16.886;2023-08-06T08:36:45;0.82;;;0.80;;
6955;SDS011;50345;51.136;16.886;2023-08-06T08:39:12;1.00;;;0.90;;
6955;SDS011;50345;51.136;16.886;2023-08-06T08:41:38;1.55;;;0.70;;
6955;SDS011;50345;51.136;16.886;2023-08-06T08:44:05;0.80;;;0.80;;
6955;SDS011;50345;51.136;16.886;2023-08-06T08:46:33;2.72;;;2.45;;
6955;SDS011;50345;51.136;16.886;2023-08-06T08:49:00;0.70;;;0.70;;
6955;SDS011;50345;51.136;16.886;2023-08-06T08:51:27;0.90;;;0.90;;
6955;SDS011;50345;51.136;16.886;2023-08-06T08:53:53;0.90;;;0.77;;
6955;SDS011;50345;51.136;16.886;2023-08-06T08:56:23;0.80;;;0.80;;
6955;SDS011;50345;51.136;16.886;2023-08-06T08:58:49;0.70;;;0.70;;
6955;SDS011;50345;51.136;16.886;2023-08-06T09:01:18;4.75;;;0.82;;
6955;SDS011;50345;51.136;16.886;2023-08-06T09:03:44;0.70;;;0.70;;
6955;SDS011;50345;51.136;16.886;2023-08-06T09:06:11;0.80;;;0.80;;
6955;SDS011;50345;51.136;16.886;2023-08-06T09:08:41;0.82;;;0.82;;
6955;SDS011;50345;51.136;16.886;2023-08-06T09:11:09;0.63;;;0.63;;
6955;SDS011;50345;51.136;16.886;2023-08-06T09:13:36;0.70;;;0.70;;
6955;SDS011;50345;51.136;16.886;2023-08-06T09:16:03;1.13;;;1.02;;
6955;SDS011;50345;51.136;16.886;2023-08-06T09:18:29;0.70;;;0.60;;
6955;SDS011;50345;51.136;16.886;2023-08-06T09:20:56;1.02;;;0.80;;
6955;SDS011;50345;51.136;16.886;2023-08-06T09:23:29;1.92;;;0.80;;
6955;SDS011;50345;51.136;16.886;2023-08-06T09:25:56;1.00;;;0.90;;
6955;SDS011;50345;51.136;16.886;2023-08-06T09:28:22;0.70;;;0.70;;
6955;SDS011;50345;51.136;16.886;2023-08-06T09:30:49;0.85;;;0.80;;
6955;SDS011;50345;51.136;16.886;2023-08-06T09:33:19;0.80;;;0.80;;
6955;SDS011;50345;51.136;16.886;2023-08-06T09:35:46;0.90;;;0.90;;
6955;SDS011;50345;51.136;16.886;2023-08-06T09:38:12;0.80;;;0.80;;
6955;SDS011;50345;51.136;16.886;2023-08-06T09:40:38;0.82;;;0.82;;
6955;SDS011;50345;51.136;16.886;2023-08-06T09:43:05;0.98;;;0.90;;
6955;SDS011;50345;51.136;16.886;2023-08-06T09:45:32;1.05;;;0.95;;
6955;SDS011;50345;51.136;16.886;2023-08-06T09:47:58;0.70;;;0.70;;
6955;SDS011;50345;51.136;16.886;2023-08-06T09:50:31;1.20;;;0.82;;
6955;SDS011;50345;51.136;16.886;2023-08-06T09:52:58;0.77;;;0.77;;
6955;SDS011;50345;51.136;16.886;2023-08-06T09:55:24;0.77;;;0.77;;
6955;SDS011;50345;51.136;16.886;2023-08-06T09:57:53;0.98;;;0.90;;
6955;SDS011;50345;51.136;16.886;2023-08-06T10:00:20;0.93;;;0.88;;
6955;SDS011;50345;51.136;16.886;2023-08-06T10:02:47;0.90;;;0.77;;
6955;SDS011;50345;51.136;16.886;2023-08-06T10:05:14;0.75;;;0.75;;
6955;SDS011;50345;51.136;16.886;2023-08-06T10:07:41;2.30;;;1.08;;
6955;SDS011;50345;51.136;16.886;2023-08-06T10:10:08;1.00;;;0.90;;
6955;SDS011;50345;51.136;16.886;2023-08-06T10:12:35;0.90;;;0.90;;
6955;SDS011;50345;51.136;16.886;2023-08-06T10:15:04;1.00;;;0.90;;
6955;SDS011;50345;51.136;16.886;2023-08-06T10:17:32;1.65;;;1.55;;
6955;SDS011;50345;51.136;16.886;2023-08-06T10:19:59;1.30;;;1.20;;
6955;SDS011;50345;51.136;16.886;2023-08-06T10:22:25;1.40;;;1.08;;
6955;SDS011;50345;51.136;16.886;2023-08-06T10:24:58;1.30;;;0.90;;
6955;SDS011;50345;51.136;16.886;2023-08-06T10:32:48;0.98;;;0.90;;
6955;SDS011;50345;51.136;16.886;2023-08-06T10:38:02;1.25;;;0.98;;
6955;SDS011;50345;51.136;16.886;2023-08-06T10:40:29;1.10;;;1.00;;
6955;SDS011;50345;51.136;16.886;2023-08-06T10:42:58;1.08;;;0.98;;
6955;SDS011;50345;51.136;16.886;2023-08-06T10:45:24;1.48;;;1.17;;
6955;SDS011;50345;51.136;16.886;2023-08-06T10:47:54;1.25;;;1.02;;
6955;SDS011;50345;51.136;16.886;2023-08-06T10:50:23;3.08;;;0.93;;
6955;SDS011;50345;51.136;16.886;2023-08-06T10:52:49;0.90;;;0.90;;
6955;SDS011;50345;51.136;16.886;2023-08-06T10:55:22;0.85;;;0.80;;
6955;SDS011;50345;51.136;16.886;2023-08-06T10:57:49;1.40;;;1.00;;
6955;SDS011;50345;51.136;16.886;2023-08-06T11:00:15;1.50;;;1.40;;
6955;SDS011;50345;51.136;16.886;2023-08-06T11:02:41;0.90;;;0.90;;
6955;SDS011;50345;51.136;16.886;2023-08-06T11:05:09;1.55;;;1.10;;
6955;SDS011;50345;51.136;16.886;2023-08-06T11:07:35;1.15;;;0.93;;
6955;SDS011;50345;51.136;16.886;2023-08-06T11:10:05;1.38;;;1.00;;
6955;SDS011;50345;51.136;16.886;2023-08-06T11:12:32;1.10;;;1.00;;
6955;SDS011;50345;51.136;16.886;2023-08-06T11:14:58;0.90;;;0.90;;
6955;SDS011;50345;51.136;16.886;2023-08-06T11:17:24;0.80;;;0.80;;
6955;SDS011;50345;51.136;16.886;2023-08-06T11:19:51;1.40;;;0.77;;
6955;SDS011;50345;51.136;16.886;2023-08-06T11:22:17;0.90;;;0.80;;
6955;SDS011;50345;51.136;16.886;2023-08-06T11:24:43;4.05;;;3.65;;
6955;SDS011;50345;51.136;16.886;2023-08-06T11:27:13;0.80;;;0.80;;
6955;SDS011;50345;51.136;16.886;2023-08-06T11:29:40;1.85;;;0.90;;
6955;SDS011;50345;51.136;16.886;2023-08-06T11:32:06;0.80;;;0.77;;
6955;SDS011;50345;51.136;16.886;2023-08-06T11:34:33;0.98;;;0.90;;
6955;SDS011;50345;51.136;16.886;2023-08-06T11:36:59;1.00;;;0.90;;
6955;SDS011;50345;51.136;16.886;2023-08-06T11:39:25;0.80;;;0.80;;
6955;SDS011;50345;51.136;16.886;2023-08-06T11:41:51;5.63;;;5.20;;
6955;SDS011;50345;51.136;16.886;2023-08-06T11:44:21;1.17;;;1.08;;
6955;SDS011;50345;51.136;16.886;2023-08-06T11:46:50;1.00;;;0.90;;
6955;SDS011;50345;51.136;16.886;2023-08-06T11:49:17;1.65;;;0.85;;
6955;SDS011;50345;51.136;16.886;2023-08-06T11:51:47;1.00;;;1.00;;
6955;SDS011;50345;51.136;16.886;2023-08-06T11:54:13;1.25;;;1.10;;
6955;SDS011;50345;51.136;16.886;2023-08-06T11:56:39;0.93;;;0.88;;
6955;SDS011;50345;51.136;16.886;2023-08-06T11:59:05;0.85;;;0.85;;
6955;SDS011;50345;51.136;16.886;2023-08-06T12:01:31;0.90;;;0.90;;
6955;SDS011;50345;51.136;16.886;2023-08-06T12:04:00;1.93;;;1.00;;
6955;SDS011;50345;51.136;16.886;2023-08-06T12:06:27;0.88;;;0.88;;
6955;SDS011;50345;51.136;16.886;2023-08-06T12:08:53;1.73;;;1.00;;
6955;SDS011;50345;51.136;16.886;2023-08-06T12:11:20;0.93;;;0.80;;
6955;SDS011;50345;51.136;16.886;2023-08-06T12:13:50;1.50;;;1.00;;
6955;SDS011;50345;51.136;16.886;2023-08-06T12:16:16;1.20;;;1.00;;
6955;SDS011;50345;51.136;16.886;2023-08-06T12:18:44;0.90;;;0.90;;
6955;SDS011;50345;51.136;16.886;2023-08-06T12:21:10;0.80;;;0.80;;
6955;SDS011;50345;51.136;16.886;2023-08-06T12:23:36;1.52;;;1.10;;
6955;SDS011;50345;51.136;16.886;2023-08-06T12:26:02;1.10;;;1.00;;
6955;SDS011;50345;51.136;16.886;2023-08-06T12:28:28;0.87;;;0.80;;
6955;SDS011;50345;51.136;16.886;2023-08-06T12:30:54;1.58;;;1.00;;
6955;SDS011;50345;51.136;16.886;2023-08-06T12:33:20;1.85;;;1.00;;
6955;SDS011;50345;51.136;16.886;2023-08-06T12:35:46;1.02;;;0.93;;
6955;SDS011;50345;51.136;16.886;2023-08-06T12:38:12;1.20;;;1.10;;
6955;SDS011;50345;51.136;16.886;2023-08-06T12:40:39;1.48;;;1.38;;
6955;SDS011;50345;51.136;16.886;2023-08-06T12:43:05;1.40;;;1.30;;
6955;SDS011;50345;51.136;16.886;2023-08-06T12:45:31;1.30;;;1.20;;
6955;SDS011;50345;51.136;16.886;2023-08-06T12:47:57;1.85;;;1.48;;
6955;SDS011;50345;51.136;16.886;2023-08-06T12:50:23;1.38;;;1.00;;
6955;SDS011;50345;51.136;16.886;2023-08-06T12:52:49;3.38;;;3.08;;
6955;SDS011;50345;51.136;16.886;2023-08-06T12:55:15;2.80;;;2.30;;
6955;SDS011;50345;51.136;16.886;2023-08-06T12:57:41;1.90;;;1.20;;
6955;SDS011;50345;51.136;16.886;2023-08-06T13:00:07;1.30;;;1.20;;
6955;SDS011;50345;51.136;16.886;2023-08-06T13:02:33;2.65;;;2.08;;
6955;SDS011;50345;51.136;16.886;2023-08-06T13:04:59;2.00;;;1.40;;
6955;SDS011;50345;51.136;16.886;2023-08-06T13:07:28;3.05;;;1.55;;
6955;SDS011;50345;51.136;16.886;2023-08-06T13:09:54;2.00;;;1.90;;
6955;SDS011;50345;51.136;16.886;2023-08-06T13:12:20;3.08;;;1.70;;
6955;SDS011;50345;51.136;16.886;2023-08-06T13:14:47;2.90;;;2.65;;
6955;SDS011;50345;51.136;16.886;2023-08-06T13:17:14;1.35;;;1.25;;
6955;SDS011;50345;51.136;16.886;2023-08-06T13:19:40;1.20;;;1.10;;
6955;SDS011;50345;51.136;16.886;2023-08-06T13:22:06;4.00;;;1.20;;
6955;SDS011;50345;51.136;16.886;2023-08-06T13:24:33;1.25;;;1.15;;
6955;SDS011;50345;51.136;16.886;2023-08-06T13:27:00;1.83;;;1.20;;
6955;SDS011;50345;51.136;16.886;2023-08-06T13:29:27;1.83;;;1.67;;
6955;SDS011;50345;51.136;16.886;2023-08-06T13:31:53;1.33;;;1.10;;
6955;SDS011;50345;51.136;16.886;2023-08-06T13:34:19;1.60;;;1.48;;
6955;SDS011;50345;51.136;16.886;2023-08-06T13:36:45;1.38;;;1.27;;
6955;SDS011;50345;51.136;16.886;2023-08-06T13:39:11;1.92;;;1.50;;
6955;SDS011;50345;51.136;16.886;2023-08-06T13:41:37;1.50;;;1.40;;
6955;SDS011;50345;51.136;16.886;2023-08-06T13:44:04;1.50;;;1.40;;
6955;SDS011;50345;51.136;16.886;2023-08-06T13:46:30;1.23;;;1.10;;
6955;SDS011;50345;51.136;16.886;2023-08-06T13:48:56;1.20;;;1.10;;
6955;SDS011;50345;51.136;16.886;2023-08-06T13:51:22;1.20;;;1.10;;
6955;SDS011;50345;51.136;16.886;2023-08-06T13:53:48;1.30;;;1.20;;
6955;SDS011;50345;51.136;16.886;2023-08-06T13:56:14;3.15;;;1.35;;
6955;SDS011;50345;51.136;16.886;2023-08-06T13:58:42;1.40;;;1.30;;
6955;SDS011;50345;51.136;16.886;2023-08-06T14:01:12;1.42;;;1.33;;
6955;SDS011;50345;51.136;16.886;2023-08-06T14:03:38;2.13;;;2.03;;
6955;SDS011;50345;51.136;16.886;2023-08-06T14:06:04;2.53;;;2.10;;
6955;SDS011;50345;51.136;16.886;2023-08-06T14:08:30;1.42;;;1.33;;
6955;SDS011;50345;51.136;16.886;2023-08-06T14:10:56;2.40;;;1.40;;
6955;SDS011;50345;51.136;16.886;2023-08-06T14:13:22;1.55;;;1.45;;
6955;SDS011;50345;51.136;16.886;2023-08-06T14:15:48;1.40;;;1.30;;
6955;SDS011;50345;51.136;16.886;2023-08-06T14:18:15;3.08;;;1.40;;
6955;SDS011;50345;51.136;16.886;2023-08-06T14:20:41;1.50;;;1.40;;
6955;SDS011;50345;51.136;16.886;2023-08-06T14:23:07;1.17;;;1.08;;
6955;SDS011;50345;51.136;16.886;2023-08-06T14:25:33;1.52;;;1.17;;
6955;SDS011;50345;51.136;16.886;2023-08-06T14:28:00;1.40;;;1.30;;
6955;SDS011;50345;51.136;16.886;2023-08-06T14:30:26;1.40;;;1.30;;
6955;SDS011;50345;51.136;16.886;2023-08-06T14:32:52;1.50;;;1.40;;
6955;SDS011;50345;51.136;16.886;2023-08-06T14:35:18;3.13;;;1.40;;
6955;SDS011;50345;51.136;16.886;2023-08-06T14:37:44;1.30;;;1.20;;
6955;SDS011;50345;51.136;16.886;2023-08-06T14:40:11;1.40;;;1.30;;
6955;SDS011;50345;51.136;16.886;2023-08-06T14:42:37;1.63;;;1.52;;
6955;SDS011;50345;51.136;16.886;2023-08-06T14:45:03;1.75;;;1.63;;
6955;SDS011;50345;51.136;16.886;2023-08-06T14:47:29;1.40;;;1.30;;
6955;SDS011;50345;51.136;16.886;2023-08-06T14:49:55;2.50;;;1.38;;
6955;SDS011;50345;51.136;16.886;2023-08-06T14:52:21;2.25;;;1.13;;
6955;SDS011;50345;51.136;16.886;2023-08-06T14:54:47;1.37;;;1.27;;
6955;SDS011;50345;51.136;16.886;2023-08-06T14:57:16;2.03;;;1.27;;